Time;durP1;ratioP1;P1;durP2;ratioP2;P2;SDS_P1;SDS_P2;PMS_P1;PMS_P2;Temp;Humidity;BMP_temperature;BMP_pressure;BME280_temperature;BME280_humidity;BME280_pressure;Samples;Min_cycle;Max_cycle;Signal;HPM_P1;HPM_P2
2023/03/24 00:01:05;;;;;;;;;;;9.80;99.90;;;;;;5059370;28;20099;-63
2023/03/24 00:03:31;;;;;;;1.50;1.33;;;9.80;99.90;;;;;;5059150;28;20419;-63
2023/03/24 00:06:00;;;;;;;1.90;1.10;;;9.80;99.90;;;;;;5060431;28;20048;-62
2023/03/24 00:08:29;;;;;;;1.98;1.13;;;9.80;99.90;;;;;;5058446;28;20075;-62
2023/03/24 00:11:00;;;;;;;7.38;1.27;;;9.80;99.90;;;;;;5060044;28;20850;-62
2023/03/24 00:13:27;;;;;;;2.03;1.33;;;9.80;99.90;;;;;;5059491;28;20049;-62
2023/03/24 00:15:53;;;;;;;2.60;1.35;;;9.90;99.90;;;;;;5058127;28;20067;-62
2023/03/24 00:18:21;;;;;;;;;;;9.90;99.90;;;;;;5050804;28;20239;-63
2023/03/24 00:20:47;;;;;;;2.15;1.20;;;9.90;99.90;;;;;;5047208;28;19917;-61
2023/03/24 00:23:14;;;;;;;3.83;1.23;;;9.90;99.90;;;;;;5049956;28;20033;-63
2023/03/24 00:25:39;;;;;;;1.90;0.90;;;9.90;99.90;;;;;;5044847;28;20064;-62
2023/03/24 00:28:06;;;;;;;;;;;9.90;99.90;;;;;;5048490;28;20051;-63
2023/03/24 00:30:33;;;;;;;3.67;1.30;;;9.90;99.90;;;;;;5042956;28;19986;-60
2023/03/24 00:33:00;;;;;;;1.13;0.88;;;9.90;99.90;;;;;;5049109;28;20045;-61
2023/03/24 00:35:27;;;;;;;2.72;1.20;;;9.90;99.90;;;;;;5044684;28;20142;-62
2023/03/24 00:37:53;;;;;;;2.65;1.27;;;9.90;99.90;;;;;;5046485;28;20063;-61
2023/03/24 00:40:20;;;;;;;;;;;9.90;99.90;;;;;;5044728;28;20171;-61
2023/03/24 00:42:47;;;;;;;2.58;1.10;;;9.90;99.90;;;;;;5051157;28;19921;-60
2023/03/24 00:45:18;;;;;;;4.05;1.00;;;9.90;99.90;;;;;;5042957;28;20073;-61
2023/03/24 00:47:44;;;;;;;1.73;1.10;;;9.90;99.90;;;;;;5047365;28;20102;-63
2023/03/24 00:50:16;;;;;;;2.63;1.48;;;9.90;99.90;;;;;;5044005;28;20505;-63
2023/03/24 00:52:43;;;;;;;3.90;1.35;;;9.90;99.90;;;;;;5045886;28;20044;-63
2023/03/24 00:55:14;;;;;;;2.80;1.65;;;9.90;99.90;;;;;;5043629;28;20033;-62
2023/03/24 00:57:48;;;;;;;2.85;1.52;;;9.90;99.90;;;;;;5047500;28;20032;-63
2023/03/24 01:00:19;;;;;;;2.17;1.30;;;9.90;99.90;;;;;;5043693;28;20033;-61
2023/03/24 01:02:47;;;;;;;5.43;1.73;;;9.90;99.90;;;;;;5046804;28;20056;-61
2023/03/24 01:05:29;;;;;;;2.50;1.60;;;9.90;99.90;;;;;;5042498;28;20045;-63
2023/03/24 01:08:10;;;;;;;2.67;1.45;;;9.90;99.90;;;;;;5048425;28;20460;-63
2023/03/24 01:10:41;;;;;;;;;;;10.00;99.90;;;;;;5042865;28;20060;-61
2023/03/24 01:13:07;;;;;;;3.92;1.92;;;10.00;99.90;;;;;;5046798;28;19970;-62
2023/03/24 01:15:35;;;;;;;3.72;1.90;;;10.10;99.90;;;;;;5042876;28;20040;-61
2023/03/24 01:18:01;;;;;;;4.60;1.60;;;10.10;99.90;;;;;;5047143;28;20029;-63
2023/03/24 01:20:31;;;;;;;2.47;1.60;;;10.10;99.90;;;;;;5043135;28;20041;-60
2023/03/24 01:22:58;;;;;;;4.00;1.50;;;10.10;99.90;;;;;;5047213;28;20037;-62
2023/03/24 01:25:24;;;;;;;6.90;2.17;;;10.10;99.90;;;;;;5042531;28;20068;-61
2023/03/24 01:27:51;;;;;;;3.88;2.00;;;10.10;99.90;;;;;;5045377;28;20471;-62
2023/03/24 01:30:21;;;;;;;4.60;1.70;;;10.10;99.90;;;;;;5044137;28;20072;-62
2023/03/24 01:32:46;;;;;;;2.15;1.63;;;10.10;99.90;;;;;;5047807;28;20033;-62
2023/03/24 01:35:12;;;;;;;;;;;10.10;99.90;;;;;;5043735;28;20064;-64
2023/03/24 01:37:39;;;;;;;3.38;1.80;;;10.10;99.90;;;;;;5047043;28;19964;-64
2023/03/24 01:40:08;;;;;;;3.25;1.63;;;10.20;99.90;;;;;;5039968;28;20044;-62
2023/03/24 01:42:35;;;;;;;6.90;2.38;;;10.20;99.90;;;;;;5047156;28;20560;-64
2023/03/24 01:45:39;;;;;;;2.72;2.10;;;10.20;99.90;;;;;;5043446;28;20052;-63
2023/03/24 01:48:11;;;;;;;4.82;1.77;;;10.20;99.90;;;;;;5047264;28;20096;-62
2023/03/24 01:50:38;;;;;;;4.68;1.88;;;10.20;99.90;;;;;;5044315;28;20732;-63
2023/03/24 01:53:04;;;;;;;3.97;2.10;;;10.10;99.90;;;;;;5043838;28;20098;-63
2023/03/24 01:55:31;;;;;;;4.50;2.15;;;10.20;99.90;;;;;;5044426;28;20049;-65
2023/03/24 01:57:58;;;;;;;5.60;2.03;;;10.20;99.90;;;;;;5048099;28;20037;-62
2023/03/24 02:00:24;;;;;;;3.67;2.40;;;10.20;99.90;;;;;;5043459;28;20086;-62
2023/03/24 02:02:57;;;;;;;4.10;1.98;;;10.20;99.90;;;;;;5046756;28;20041;-63
2023/03/24 02:05:26;;;;;;;2.42;1.90;;;10.20;99.90;;;;;;5043629;28;20037;-61
2023/03/24 02:08:04;;;;;;;7.55;2.92;;;10.30;99.90;;;;;;5045207;28;20045;-62
2023/03/24 02:10:32;;;;;;;4.35;2.35;;;10.20;99.90;;;;;;5042374;28;20044;-64
2023/03/24 02:12:58;;;;;;;4.15;2.42;;;10.20;99.90;;;;;;5046690;28;20512;-63
2023/03/24 02:15:26;;;;;;;;;;;10.20;99.90;;;;;;5041465;28;20036;-64
2023/03/24 02:18:17;;;;;;;3.97;2.47;;;10.30;99.90;;;;;;5047241;28;20511;-63
2023/03/24 02:21:04;;;;;;;4.80;2.92;;;10.20;99.90;;;;;;5044300;28;20071;-62
2023/03/24 02:23:33;;;;;;;;;;;10.20;99.90;;;;;;5044890;28;20041;-61
2023/03/24 02:26:19;;;;;;;4.65;2.72;;;10.20;99.90;;;;;;5046954;28;19920;-63
2023/03/24 02:29:09;;;;;;;3.33;2.20;;;10.20;99.90;;;;;;5042659;28;20049;-64
2023/03/24 02:32:08;;;;;;;5.45;2.78;;;10.20;99.90;;;;;;5045828;28;20048;-62
2023/03/24 02:34:58;;;;;;;5.97;2.47;;;10.10;99.90;;;;;;5038374;28;20086;-63
2023/03/24 02:37:46;;;;;;;3.00;1.92;;;10.10;99.90;;;;;;5047031;28;20044;-63
2023/03/24 02:40:51;;;;;;;3.58;2.45;;;10.20;99.90;;;;;;5041898;28;20525;-61
2023/03/24 02:43:20;;;;;;;4.00;2.10;;;10.20;99.90;;;;;;5045227;28;20067;-61
2023/03/24 02:46:12;;;;;;;3.17;2.13;;;10.10;99.90;;;;;;5042963;28;20041;-63
2023/03/24 02:49:17;;;;;;;4.50;2.15;;;10.20;99.90;;;;;;5038998;28;20033;-62
2023/03/24 02:52:06;;;;;;;3.30;1.95;;;10.20;99.90;;;;;;5043778;28;20041;-64
2023/03/24 02:55:29;;;;;;;3.78;2.00;;;10.20;99.90;;;;;;5041678;28;20524;-62
2023/03/24 02:58:04;;;;;;;3.63;1.98;;;10.20;99.90;;;;;;4978755;28;20046;-64
2023/03/24 03:00:33;;;;;;;4.95;2.42;;;10.20;99.90;;;;;;4980543;28;20518;-63
2023/03/24 03:03:07;;;;;;;4.07;2.10;;;10.20;99.90;;;;;;5003426;28;20068;-64
2023/03/24 03:05:36;;;;;;;5.40;2.17;;;10.20;99.90;;;;;;5040732;28;20080;-63
2023/03/24 03:08:05;;;;;;;3.90;1.90;;;10.20;99.90;;;;;;5044760;28;20492;-61
2023/03/24 03:10:41;;;;;;;7.18;2.60;;;10.20;99.90;;;;;;5045351;28;20163;-62
2023/03/24 03:13:14;;;;;;;3.05;2.33;;;10.20;99.90;;;;;;5045837;28;20167;-63
2023/03/24 03:15:45;;;;;;;4.75;2.53;;;10.20;99.90;;;;;;5045107;28;20052;-59
2023/03/24 03:18:21;;;;;;;3.70;2.63;;;10.20;99.90;;;;;;5046025;28;20044;-61
2023/03/24 03:20:53;;;;;;;4.20;2.30;;;10.20;99.90;;;;;;5046770;28;20048;-63
2023/03/24 03:23:25;;;;;;;4.45;2.75;;;10.20;99.90;;;;;;5044518;28;20041;-63
2023/03/24 03:25:56;;;;;;;5.38;3.00;;;10.20;99.90;;;;;;5044779;28;20044;-62
2023/03/24 03:28:28;;;;;;;3.70;2.65;;;10.20;99.90;;;;;;5044446;28;20045;-63
2023/03/24 03:30:57;;;;;;;7.72;2.50;;;10.20;99.90;;;;;;5043896;28;20120;-63
2023/03/24 03:33:48;;;;;;;3.50;2.40;;;10.20;99.90;;;;;;5042301;28;20053;-61
2023/03/24 03:36:19;;;;;;;5.55;3.28;;;10.20;99.90;;;;;;5046608;28;20086;-62
2023/03/24 03:39:09;;;;;;;4.78;2.92;;;10.20;99.90;;;;;;5041681;28;20052;-62
2023/03/24 03:41:36;;;;;;;4.22;2.88;;;10.20;99.90;;;;;;5038023;28;20049;-62
2023/03/24 03:44:01;;;;;;;4.43;2.38;;;10.20;99.90;;;;;;5041374;28;20041;-62
2023/03/24 03:46:27;;;;;;;;;;;10.20;99.90;;;;;;5046623;28;20098;-60
2023/03/24 03:48:53;;;;;;;6.05;2.63;;;10.20;99.90;;;;;;5042002;28;19917;-62
2023/03/24 03:51:18;;;;;;;;;;;10.20;99.90;;;;;;5045226;28;20068;-61
2023/03/24 03:53:51;;;;;;;4.82;2.80;;;10.20;99.90;;;;;;5043334;28;20301;-61
2023/03/24 03:56:20;;;;;;;5.03;2.80;;;10.20;99.90;;;;;;5049412;28;20615;-59
2023/03/24 03:58:47;;;;;;;5.40;3.25;;;10.20;99.90;;;;;;5044565;28;20175;-64
2023/03/24 04:01:17;;;;;;;8.30;3.10;;;10.20;99.90;;;;;;5048566;28;20029;-62
2023/03/24 04:04:01;;;;;;;7.13;3.40;;;10.20;99.90;;;;;;5045089;28;20048;-62
2023/03/24 04:06:36;;;;;;;5.10;2.92;;;10.20;99.90;;;;;;5049009;28;20584;-64
2023/03/24 04:09:31;;;;;;;6.78;3.33;;;10.20;99.90;;;;;;5044133;28;20503;-63
2023/03/24 04:12:17;;;;;;;6.03;3.00;;;10.20;99.90;;;;;;5044106;28;20045;-64
2023/03/24 04:15:07;;;;;;;6.88;2.90;;;10.20;99.90;;;;;;5044761;28;20553;-64
2023/03/24 04:17:46;;;;;;;4.70;3.05;;;10.20;99.90;;;;;;5041362;28;20140;-63
2023/03/24 04:20:45;;;;;;;5.03;3.28;;;10.20;99.90;;;;;;5043319;28;20033;-63
2023/03/24 04:23:29;;;;;;;5.10;3.50;;;10.20;99.90;;;;;;5049232;28;20040;-62
2023/03/24 04:26:25;;;;;;;5.93;3.25;;;10.20;99.90;;;;;;5047326;28;20052;-61
2023/03/24 04:29:30;;;;;;;5.57;3.50;;;10.20;99.90;;;;;;5043334;28;20037;-61
2023/03/24 04:32:23;;;;;;;5.55;3.42;;;10.20;99.90;;;;;;5047914;28;20756;-60
2023/03/24 04:35:00;;;;;;;5.47;3.20;;;10.30;99.90;;;;;;5043335;28;20080;-61
2023/03/24 04:37:36;;;;;;;11.85;3.78;;;10.30;99.90;;;;;;5047507;28;20052;-62
2023/03/24 04:40:06;;;;;;;5.70;3.35;;;10.30;99.90;;;;;;5045582;28;20040;-62
2023/03/24 04:42:40;;;;;;;6.57;3.47;;;10.30;99.90;;;;;;5048524;28;20070;-63
2023/03/24 04:45:07;;;;;;;5.65;3.60;;;10.30;99.90;;;;;;5041590;28;20186;-64
2023/03/24 04:47:41;;;;;;;6.65;3.90;;;10.30;99.90;;;;;;5048979;28;20037;-62
2023/03/24 04:50:10;;;;;;;6.35;3.60;;;10.30;99.90;;;;;;5041602;28;20116;-65
2023/03/24 04:52:37;;;;;;;5.95;3.75;;;10.40;99.90;;;;;;5048837;28;20048;-62
2023/03/24 04:55:19;;;;;;;9.43;3.10;;;10.30;99.90;;;;;;5045274;28;20076;-62
2023/03/24 04:57:45;;;;;;;6.13;3.20;;;10.30;99.90;;;;;;5041547;28;20040;-64
2023/03/24 05:00:11;;;;;;;;;;;10.30;99.90;;;;;;5045977;28;20044;-63
2023/03/24 05:02:37;;;;;;;4.60;3.70;;;10.40;99.90;;;;;;5047479;28;19923;-62
2023/03/24 05:05:03;;;;;;;6.63;4.05;;;10.30;99.90;;;;;;5044731;28;20041;-62
2023/03/24 05:07:28;;;;;;;;;;;10.30;99.90;;;;;;5047529;28;20052;-62
2023/03/24 05:09:54;;;;;;;6.15;4.05;;;10.30;99.90;;;;;;5045341;28;20117;-61
2023/03/24 05:12:20;;;;;;;;;;;10.30;99.90;;;;;;5048627;28;20124;-63
2023/03/24 05:14:45;;;;;;;6.30;3.67;;;10.30;99.90;;;;;;5045431;28;19928;-62
2023/03/24 05:17:11;;;;;;;4.53;3.17;;;10.30;99.90;;;;;;5043764;28;20052;-63
2023/03/24 05:19:37;;;;;;;;;;;10.30;99.90;;;;;;5045257;28;20064;-63
2023/03/24 05:22:02;;;;;;;6.03;3.45;;;10.30;99.90;;;;;;5048502;28;19920;-62
2023/03/24 05:24:28;;;;;;;;;;;10.30;99.90;;;;;;5043222;28;20033;-62
2023/03/24 05:26:53;;;;;;;5.68;3.67;;;10.30;99.90;;;;;;5054209;28;19975;-62
2023/03/24 05:29:19;;;;;;;;;;;10.30;99.90;;;;;;5049016;28;20115;-64
2023/03/24 05:31:44;;;;;;;5.38;3.25;;;10.30;99.90;;;;;;5047091;28;20415;-63
2023/03/24 05:34:10;;;;;;;;;;;10.30;99.90;;;;;;5043806;28;20037;-62
2023/03/24 05:36:36;;;;;;;6.82;3.50;;;10.30;99.90;;;;;;5048013;28;19970;-61
2023/03/24 05:39:02;;;;;;;8.52;3.40;;;10.30;99.90;;;;;;5043449;28;20132;-64
2023/03/24 05:41:27;;;;;;;;;;;10.30;99.90;;;;;;5048333;28;20120;-63
2023/03/24 05:43:53;;;;;;;6.88;3.13;;;10.30;99.90;;;;;;5042722;28;20004;-62
2023/03/24 05:46:19;;;;;;;;;;;10.40;99.90;;;;;;5047320;28;20559;-64
2023/03/24 05:48:45;;;;;;;4.53;2.90;;;10.40;99.90;;;;;;5044705;28;19928;-63
2023/03/24 05:51:11;;;;;;;5.75;3.05;;;10.40;99.90;;;;;;5048238;28;20120;-63
2023/03/24 05:53:36;;;;;;;;;;;10.40;99.90;;;;;;5043603;28;20117;-63
2023/03/24 05:56:02;;;;;;;6.65;2.78;;;10.40;99.90;;;;;;5046011;28;19917;-63
2023/03/24 05:58:27;;;;;;;;;;;10.40;99.90;;;;;;5045742;28;20146;-63
2023/03/24 06:00:53;;;;;;;4.80;2.97;;;10.50;99.90;;;;;;5053430;28;19939;-61
2023/03/24 06:03:19;;;;;;;;;;;10.50;99.90;;;;;;5046514;28;20480;-62
2023/03/24 06:05:46;;;;;;;4.25;2.75;;;10.50;99.90;;;;;;5043746;28;19964;-62
2023/03/24 06:08:12;;;;;;;5.35;2.88;;;10.40;99.90;;;;;;5043647;28;20044;-60
2023/03/24 06:10:37;;;;;;;;;;;10.40;99.90;;;;;;5055395;28;20036;-64
2023/03/24 06:13:03;;;;;;;4.82;2.60;;;10.40;99.90;;;;;;5048809;28;19924;-61
2023/03/24 06:15:29;;;;;;;4.68;2.58;;;10.40;99.90;;;;;;5043150;28;20844;-64
2023/03/24 06:17:55;;;;;;;6.47;2.42;;;10.40;99.90;;;;;;5042750;28;20528;-63
2023/03/24 06:20:21;;;;;;;;;;;10.40;99.90;;;;;;5043214;28;20057;-61
2023/03/24 06:22:46;;;;;;;3.50;1.77;;;10.30;99.90;;;;;;5044578;28;20430;-62
2023/03/24 06:25:14;;;;;;;;;;;10.30;99.90;;;;;;5041448;28;20574;-61
2023/03/24 06:27:45;;;;;;;;;;;10.20;99.90;;;;;;5043595;28;19990;-62
2023/03/24 06:30:12;;;;;;;1.67;1.20;;;10.10;99.90;;;;;;5040547;28;19917;-57
2023/03/24 06:32:38;;;;;;;2.72;1.30;;;10.00;99.90;;;;;;5042612;28;20036;-63
2023/03/24 06:35:04;;;;;;;;;;;9.90;99.90;;;;;;5041182;28;20095;-59
2023/03/24 06:37:29;;;;;;;2.10;1.30;;;10.00;99.90;;;;;;5044405;28;19928;-59
2023/03/24 06:39:55;;;;;;;2.22;1.15;;;9.90;99.90;;;;;;5042748;28;20040;-63
2023/03/24 06:42:20;;;;;;;;;;;10.00;99.90;;;;;;5046812;28;20044;-64
2023/03/24 06:44:46;;;;;;;2.28;1.17;;;10.30;99.90;;;;;;5041752;28;19916;-63
2023/03/24 06:47:11;;;;;;;;;;;10.40;99.90;;;;;;5046402;28;20033;-61
2023/03/24 06:49:37;;;;;;;1.90;1.10;;;10.60;99.90;;;;;;5043001;28;20321;-59
2023/03/24 06:52:03;;;;;;;;;;;10.50;99.90;;;;;;5046389;28;20043;-59
2023/03/24 06:54:28;;;;;;;3.30;1.20;;;10.40;99.90;;;;;;5044213;28;20325;-62
2023/03/24 06:56:55;;;;;;;;;;;10.40;99.90;;;;;;5046143;28;20359;-60
2023/03/24 06:59:22;;;;;;;5.20;1.43;;;10.20;99.90;;;;;;5041299;28;20549;-62
2023/03/24 07:01:52;;;;;;;2.78;1.67;;;10.20;99.90;;;;;;5044138;28;20571;-61
2023/03/24 07:04:18;;;;;;;1.92;1.38;;;10.10;99.90;;;;;;5039669;28;20485;-62
2023/03/24 07:06:44;;;;;;;2.47;1.20;;;10.10;99.90;;;;;;5045834;28;20080;-59
2023/03/24 07:09:11;;;;;;;1.92;1.13;;;10.30;99.90;;;;;;5041384;28;20052;-62
2023/03/24 07:11:37;;;;;;;2.28;1.38;;;10.50;99.90;;;;;;5045327;28;20090;-61
2023/03/24 07:14:03;;;;;;;4.22;1.20;;;10.70;99.90;;;;;;5040905;28;20120;-60
2023/03/24 07:16:29;;;;;;;5.18;1.23;;;10.90;99.90;;;;;;5045535;28;20401;-62
2023/03/24 07:18:54;;;;;;;;;;;11.10;99.90;;;;;;5042162;28;20099;-60
2023/03/24 07:21:20;;;;;;;4.00;1.48;;;11.20;99.90;;;;;;5045845;28;19920;-60
2023/03/24 07:23:46;;;;;;;;;;;11.10;99.90;;;;;;5041501;28;20041;-62
2023/03/24 07:26:11;;;;;;;3.38;1.38;;;11.10;99.90;;;;;;5049739;28;19924;-61
2023/03/24 07:28:37;;;;;;;;;;;10.90;99.90;;;;;;5044459;28;20384;-58
2023/03/24 07:31:03;;;;;;;2.88;1.13;;;10.90;99.90;;;;;;5047774;28;20388;-57
2023/03/24 07:33:30;;;;;;;6.07;1.63;;;10.80;99.90;;;;;;5047785;28;20130;-60
2023/03/24 07:35:56;;;;;;;3.08;1.73;;;10.80;99.90;;;;;;5045541;28;20075;-59
2023/03/24 07:38:22;;;;;;;;;;;10.70;99.90;;;;;;5048427;28;20261;-59
2023/03/24 07:40:47;;;;;;;3.25;1.30;;;10.60;99.90;;;;;;5047218;28;19916;-56
2023/03/24 07:43:13;;;;;;;;;;;10.30;99.90;;;;;;5048636;28;20405;-60
2023/03/24 07:45:39;;;;;;;3.10;1.23;;;10.30;99.90;;;;;;5048938;28;20017;-60
2023/03/24 07:48:05;;;;;;;1.85;1.00;;;10.30;99.90;;;;;;5048569;28;20139;-53
2023/03/24 07:50:31;;;;;;;3.97;1.50;;;10.30;99.90;;;;;;5049117;28;20127;-59
2023/03/24 07:52:56;;;;;;;3.45;1.33;;;10.30;99.90;;;;;;5049378;28;20401;-56
2023/03/24 07:55:22;;;;;;;;;;;10.40;99.90;;;;;;5045664;28;20037;-54
2023/03/24 07:57:48;;;;;;;3.58;1.02;;;10.40;99.90;;;;;;5048658;28;20098;-60
2023/03/24 08:00:18;;;;;;;1.92;1.40;;;10.50;99.90;;;;;;5045541;28;20649;-61
2023/03/24 08:02:53;;;;;;;2.03;1.20;;;10.80;99.90;;;;;;5038648;28;20057;-60
2023/03/24 08:05:20;;;;;;;4.78;1.27;;;11.30;99.90;;;;;;5027154;28;20101;-61
2023/03/24 08:07:52;;;;;;;4.68;1.13;;;12.00;99.90;;;;;;5036786;28;20046;-59
2023/03/24 08:10:20;;;;;;;5.85;1.55;;;12.40;99.90;;;;;;5035437;28;20707;-58
2023/03/24 08:12:46;;;;;;;4.47;0.90;;;12.40;99.90;;;;;;5039162;28;20044;-61
2023/03/24 08:15:13;;;;;;;5.32;1.35;;;12.40;99.90;;;;;;5027972;28;20502;-62
2023/03/24 08:17:40;;;;;;;3.83;1.05;;;12.30;99.90;;;;;;5030155;28;20045;-64
2023/03/24 08:20:13;;;;;;;6.00;1.30;;;12.40;99.90;;;;;;5026905;28;20038;-62
2023/03/24 08:22:41;;;;;;;3.60;1.40;;;12.70;99.90;;;;;;5020872;28;20045;-62
2023/03/24 08:25:08;;;;;;;3.63;1.00;;;13.20;99.90;;;;;;5026043;28;20120;-63
2023/03/24 08:27:36;;;;;;;4.93;0.85;;;13.20;99.90;;;;;;5028566;28;20119;-57
2023/03/24 08:30:07;;;;;;;4.32;1.10;;;12.70;99.90;;;;;;5025357;28;20116;-63
2023/03/24 08:32:34;;;;;;;2.53;1.00;;;12.20;99.90;;;;;;5039331;28;20386;-63
2023/03/24 08:35:00;;;;;;;3.95;1.13;;;11.70;99.90;;;;;;5021866;28;20409;-60
2023/03/24 08:37:25;;;;;;;;;;;11.60;99.90;;;;;;5027594;28;20045;-59
2023/03/24 08:39:51;;;;;;;2.92;0.98;;;11.40;99.90;;;;;;5032731;28;19925;-60
2023/03/24 08:42:16;;;;;;;6.07;1.25;;;11.50;99.90;;;;;;5042524;28;20068;-59
2023/03/24 08:44:43;;;;;;;;;;;11.50;99.90;;;;;;5024962;28;20547;-62
2023/03/24 08:47:08;;;;;;;7.00;1.30;;;11.60;99.90;;;;;;5036735;28;20043;-62
2023/03/24 08:49:34;;;;;;;8.63;1.98;;;11.50;99.90;;;;;;5034012;28;20123;-60
2023/03/24 08:52:00;;;;;;;;;;;11.50;99.90;;;;;;5032538;28;20121;-63
2023/03/24 08:54:25;;;;;;;5.53;1.63;;;11.40;99.90;;;;;;5027966;28;19925;-61
2023/03/24 08:56:51;;;;;;;;;;;11.40;99.90;;;;;;5044904;28;20048;-60
2023/03/24 08:59:17;;;;;;;7.80;1.58;;;11.40;99.90;;;;;;5019906;28;19917;-62
2023/03/24 09:01:42;;;;;;;;;;;11.50;99.90;;;;;;5027697;28;20456;-63
2023/03/24 09:04:08;;;;;;;9.10;1.58;;;11.50;99.90;;;;;;5025160;28;19932;-62
2023/03/24 09:06:34;;;;;;;;;;;11.80;99.90;;;;;;5028899;28;20479;-61
2023/03/24 09:08:59;;;;;;;4.85;1.20;;;11.80;99.90;;;;;;5023030;28;20317;-63
2023/03/24 09:11:25;;;;;;;5.20;1.05;;;12.00;99.90;;;;;;5028277;28;20045;-62
2023/03/24 09:13:51;;;;;;;;;;;12.10;99.90;;;;;;5024995;28;20045;-57
2023/03/24 09:16:17;;;;;;;7.05;1.25;;;11.90;99.90;;;;;;5038314;28;20380;-60
2023/03/24 09:18:43;;;;;;;6.65;2.35;;;11.70;99.90;;;;;;5027247;28;20042;-63
2023/03/24 09:21:09;;;;;;;4.32;0.77;;;11.80;99.90;;;;;;5027325;28;20603;-62
2023/03/24 09:23:35;;;;;;;;;;;12.00;99.90;;;;;;5028248;28;20037;-61
2023/03/24 09:26:01;;;;;;;4.88;1.27;;;12.20;99.90;;;;;;5037883;28;19920;-59
2023/03/24 09:28:27;;;;;;;7.18;1.70;;;12.30;99.90;;;;;;5033867;28;20048;-60
2023/03/24 09:30:56;;;;;;;;;;;12.40;99.90;;;;;;5035583;28;20468;-61
2023/03/24 09:33:23;;;;;;;3.22;1.38;;;12.30;99.90;;;;;;5027873;28;19921;-62
2023/03/24 09:35:59;;;;;;;6.45;1.05;;;12.40;99.90;;;;;;5024734;28;20107;-62
2023/03/24 09:38:25;;;;;;;4.47;1.35;;;12.40;99.90;;;;;;5022912;28;20054;-60
2023/03/24 09:40:55;;;;;;;;;;;12.40;99.90;;;;;;5028065;28;20076;-60
2023/03/24 09:43:35;;;;;;;9.20;1.40;;;12.20;99.90;;;;;;5021509;28;20031;-60
2023/03/24 09:46:03;;;;;;;8.52;1.55;;;12.00;99.90;;;;;;5057502;28;20582;-61
2023/03/24 09:48:52;;;;;;;6.05;1.45;;;12.00;99.90;;;;;;5026222;28;20041;-57
2023/03/24 09:51:25;;;;;;;7.65;1.50;;;12.10;99.90;;;;;;5024639;28;20044;-59
2023/03/24 09:54:13;;;;;;;4.93;1.58;;;12.20;99.90;;;;;;5022873;28;20042;-59
2023/03/24 09:56:42;;;;;;;9.30;1.77;;;12.20;99.90;;;;;;5020463;28;20130;-61
2023/03/24 09:59:20;;;;;;;6.65;2.17;;;12.30;99.90;;;;;;5040033;28;20051;-57
2023/03/24 10:01:45;;;;;;;7.50;2.25;;;12.40;99.90;;;;;;5026347;28;20037;-58
2023/03/24 10:04:17;;;;;;;;;;;12.30;99.90;;;;;;5024032;28;20040;-60
2023/03/24 10:06:44;;;;;;;7.82;1.88;;;12.00;99.90;;;;;;5027367;28;19928;-61
2023/03/24 10:09:23;;;;;;;4.85;1.90;;;12.20;99.90;;;;;;5021405;28;20619;-61
2023/03/24 10:12:03;;;;;;;6.82;1.90;;;12.30;99.90;;;;;;5025275;28;20087;-62
2023/03/24 10:14:55;;;;;;;7.38;2.33;;;12.30;99.90;;;;;;5023137;28;20030;-60
2023/03/24 10:17:42;;;;;;;8.02;2.08;;;12.30;99.90;;;;;;5028364;28;20087;-61
2023/03/24 10:20:34;;;;;;;8.10;2.38;;;12.50;99.90;;;;;;5020769;28;20061;-58
2023/03/24 10:23:29;;;;;;;7.20;3.03;;;12.00;99.90;;;;;;5023164;28;20037;-60
2023/03/24 10:26:22;;;;;;;6.07;2.47;;;11.90;99.90;;;;;;5024995;28;20049;-60
2023/03/24 10:29:03;;;;;;;10.07;2.58;;;12.20;99.90;;;;;;5023232;28;20034;-59
2023/03/24 10:31:32;;;;;;;8.98;3.22;;;12.40;99.90;;;;;;5025960;28;20125;-61
2023/03/24 10:33:58;;;;;;;7.63;2.75;;;12.60;99.90;;;;;;5023746;28;20095;-61
2023/03/24 10:36:24;;;;;;;8.43;3.00;;;12.60;99.90;;;;;;5041136;28;20120;-60
2023/03/24 10:38:50;;;;;;;10.02;3.13;;;12.70;99.90;;;;;;5022480;28;20533;-61
2023/03/24 10:41:20;;;;;;;;;;;12.80;99.90;;;;;;5026519;28;20128;-61
2023/03/24 10:43:47;;;;;;;9.32;3.30;;;12.50;99.90;;;;;;5027414;28;20459;-62
2023/03/24 10:46:18;;;;;;;10.50;3.78;;;12.40;99.90;;;;;;5025967;28;20124;-61
2023/03/24 10:48:53;;;;;;;9.15;3.15;;;12.60;99.90;;;;;;5023906;28;20129;-60
2023/03/24 10:51:27;;;;;;;10.35;3.33;;;12.80;99.90;;;;;;5057002;28;20049;-60
2023/03/24 10:54:20;;;;;;;6.85;2.95;;;12.50;99.90;;;;;;5022790;28;20525;-61
2023/03/24 10:57:00;;;;;;;11.35;2.85;;;12.80;99.90;;;;;;5025316;28;20045;-61
2023/03/24 10:59:53;;;;;;;9.27;2.83;;;12.90;99.90;;;;;;5021496;28;20053;-60
2023/03/24 11:02:31;;;;;;;14.52;3.20;;;13.30;99.90;;;;;;5019751;28;20041;-56
2023/03/24 11:05:04;;;;;;;6.07;2.80;;;13.10;99.90;;;;;;5023172;28;20053;-57
2023/03/24 11:07:43;;;;;;;13.50;3.33;;;13.10;99.90;;;;;;5025124;28;20092;-60
2023/03/24 11:10:08;;;;;;;9.38;3.22;;;13.10;99.90;;;;;;5020266;28;20044;-62
2023/03/24 11:12:35;;;;;;;;;;;;;;;;;;5026898;28;20124;-60
2023/03/24 11:15:21;;;;;;;7.97;2.67;;;;;;;;;;5018412;28;19933;-62
2023/03/24 11:17:58;;;;;;;9.05;2.30;;;;;;;;;;5022026;28;20287;-61
2023/03/24 11:20:26;;;;;;;6.45;2.20;;;;;;;;;;5023551;28;20130;-62
2023/03/24 11:23:08;;;;;;;9.27;2.92;;;;;;;;;;5022236;28;20517;-61
2023/03/24 11:25:39;;;;;;;10.30;2.60;;;;;;;;;;5020875;28;20037;-62
2023/03/24 11:28:10;;;;;;;7.63;2.17;;;;;;;;;;5027855;28;20103;-62
2023/03/24 11:30:46;;;;;;;26.05;6.18;;;;;;;;;;5022363;28;20131;-60
2023/03/24 11:33:18;;;;;;;28.92;7.90;;;;;;;;;;5026921;28;20401;-61
2023/03/24 11:35:44;;;;;;;15.35;2.50;;;;;;;;;;5026063;28;20053;-61
2023/03/24 11:38:15;;;;;;;9.93;2.50;;;;;;;;;;5026028;28;20573;-61
2023/03/24 11:40:51;;;;;;;6.25;2.25;;;;;;;;;;5022071;28;20164;-61
2023/03/24 11:43:17;;;;;;;;;;;;;;;;;;5026414;28;20030;-60
2023/03/24 11:45:45;;;;;;;8.50;2.95;;;;;;;;;;5022138;28;19917;-58
2023/03/24 11:48:38;;;;;;;33.10;8.02;;;;;;;;;;5029621;28;20027;-62
2023/03/24 11:51:05;;;;;;;8.07;2.35;;;;;;;;;;5020285;28;20045;-59
2023/03/24 11:53:48;;;;;;;6.88;2.65;;;;;;;;;;5017745;28;20121;-62
2023/03/24 11:56:25;;;;;;;8.93;2.80;;;;;;;;;;5023197;28;20124;-63
2023/03/24 11:59:17;;;;;;;9.30;3.20;;;;;;;;;;5020675;28;20073;-62
2023/03/24 12:01:50;;;;;;;9.52;3.22;;;;;;;;;;4999238;28;20045;-61
2023/03/24 12:04:55;;;;;;;13.80;3.58;;;;;;;;;;5021287;28;20037;-61
2023/03/24 12:07:42;;;;;;;5.10;3.10;;;;;;;;;;4974748;28;20038;-60
2023/03/24 12:10:29;;;;;;;8.07;3.15;;;;;;;;;;4979644;28;20272;-63
2023/03/24 12:13:05;;;;;;;6.82;3.13;;;;;;;;;;5015372;28;20065;-61
2023/03/24 12:15:50;;;;;;;8.10;3.10;;;;;;;;;;5025619;28;20033;-63
2023/03/24 12:18:26;;;;;;;8.85;3.83;;;;;;;;;;5029484;28;20072;-62
2023/03/24 12:21:11;;;;;;;8.30;2.97;;;;;;;;;;5030006;28;20038;-61
2023/03/24 12:23:44;;;;;;;8.45;3.00;;;;;;;;;;5022524;28;20040;-64
2023/03/24 12:26:13;;;;;;;9.52;2.97;;;;;;;;;;5026933;28;20049;-60
2023/03/24 12:28:46;;;;;;;9.80;3.10;;;;;;;;;;5025462;28;20040;-60
2023/03/24 12:31:33;;;;;;;8.73;3.15;;;;;;;;;;5025170;28;20033;-61
2023/03/24 12:33:59;;;;;;;;;;;;;;;;;;5027794;28;20040;-61
2023/03/24 12:36:37;;;;;;;9.18;3.55;;;;;;;;;;5028855;28;19935;-61
2023/03/24 12:39:16;;;;;;;8.23;3.30;;;;;;;;;;5023571;28;20733;-59
2023/03/24 12:41:45;;;;;;;9.50;3.13;;;;;;;;;;5028854;28;20034;-60
2023/03/24 12:44:22;;;;;;;10.48;3.05;;;;;;;;;;5022957;28;20397;-62
2023/03/24 12:46:54;;;;;;;6.07;2.83;;;;;;;;;;5029839;28;20042;-63
2023/03/24 12:49:27;;;;;;;7.07;2.75;;;;;;;;;;5024441;28;20033;-63
2023/03/24 12:51:53;;;;;;;11.85;3.38;;;;;;;;;;5029009;28;20033;-61
2023/03/24 12:54:19;;;;;;;;;;;;;;;;;;5023393;28;20037;-60
2023/03/24 12:56:44;;;;;;;8.73;3.08;;;;;;;;;;5028404;28;19940;-63
2023/03/24 12:59:10;;;;;;;;;;;;;;;;;;5025186;28;20037;-62
2023/03/24 13:01:45;;;;;;;7.15;2.63;;;;;;;;;;5027308;28;20035;-61
2023/03/24 13:04:11;;;;;;;8.45;2.40;;;;;;;;;;5023108;28;20033;-60
2023/03/24 13:06:45;;;;;;;15.65;3.33;;;;;;;;;;5026913;28;20124;-60
2023/03/24 13:09:12;;;;;;;10.80;2.88;;;;;;;;;;5022346;28;20037;-63
2023/03/24 13:11:52;;;;;;;14.45;3.90;;;;;;;;;;5033637;28;20114;-62
2023/03/24 13:14:23;;;;;;;10.27;2.90;;;;;;;;;;5019817;28;20100;-62
2023/03/24 13:16:50;;;;;;;13.35;3.67;;;;;;;;;;5027405;28;20059;-57
2023/03/24 13:19:24;;;;;;;10.45;3.20;;;;;;;;;;5026547;28;20040;-58
2023/03/24 13:21:51;;;;;;;7.97;2.45;;;;;;;;;;5021934;28;20681;-60
2023/03/24 13:24:18;;;;;;;11.13;2.63;;;;;;;;;;5023577;28;20099;-60
2023/03/24 13:26:53;;;;;;;6.80;2.15;;;;;;;;;;5026640;28;20033;-60
2023/03/24 13:29:22;;;;;;;9.13;2.55;;;;;;;;;;5024057;28;20464;-63
2023/03/24 13:32:00;;;;;;;8.40;2.38;;;;;;;;;;5026960;28;20454;-64
2023/03/24 13:34:26;;;;;;;9.27;2.45;;;;;;;;;;5025346;28;20045;-62
2023/03/24 13:36:52;;;;;;;;;;;;;;;;;;5027804;28;20100;-59
2023/03/24 13:39:24;;;;;;;11.27;3.00;;;;;;;;;;5022295;28;19920;-61
2023/03/24 13:41:51;;;;;;;6.35;2.28;;;;;;;;;;5027790;28;20065;-61
2023/03/24 13:44:19;;;;;;;7.82;2.35;;;;;;;;;;5021020;28;20577;-61